Time;durP1;ratioP1;P1;durP2;ratioP2;P2;SDS_P1;SDS_P2;PMS_P1;PMS_P2;Temp;Humidity;BMP_temperature;BMP_pressure;BME280_temperature;BME280_humidity;BME280_pressure;Samples;Min_cycle;Max_cycle;Signal;HPM_P1;HPM_P2
2022/01/10 00:01:36;;;;;;;;;16.50;15.00;;;;;20.20;35.42;100516.44;5057483;28;45624;-57
2022/01/10 00:04:02;;;;;;;;;12.25;11.00;;;;;20.17;35.68;100521.03;5056806;28;46754;-57
2022/01/10 00:06:27;;;;;;;;;13.25;13.25;;;;;20.16;35.52;100529.84;5056617;28;45352;-57
2022/01/10 00:08:52;;;;;;;;;12.75;12.25;;;;;20.13;35.80;100528.25;5056897;28;45573;-56
2022/01/10 00:11:18;;;;;;;;;14.00;14.00;;;;;20.11;35.61;100530.13;5039003;28;45345;-57
2022/01/10 00:13:43;;;;;;;;;11.00;10.50;;;;;20.10;35.28;100535.50;5056550;28;46265;-57
2022/01/10 00:16:08;;;;;;;;;13.50;13.25;;;;;20.07;35.64;100542.63;5056945;28;45483;-56
2022/01/10 00:18:34;;;;;;;;;14.50;14.25;;;;;20.05;35.66;100544.50;5056817;28;45306;-56
2022/01/10 00:20:59;;;;;;;;;17.25;14.75;;;;;20.03;35.21;100543.72;5057011;28;45589;-56
2022/01/10 00:23:24;;;;;;;;;14.00;10.75;;;;;20.03;35.34;100548.16;5056540;28;46752;-56
2022/01/10 00:25:50;;;;;;;;;13.00;13.00;;;;;20.01;35.58;100545.59;5038455;28;45239;-56
2022/01/10 00:28:15;;;;;;;;;13.25;11.75;;;;;20.00;35.89;100559.72;5056735;28;45367;-57
2022/01/10 00:30:40;;;;;;;;;15.25;11.00;;;;;19.98;35.68;100553.69;5057083;28;45577;-56
2022/01/10 00:33:06;;;;;;;;;15.50;13.75;;;;;19.98;35.53;100556.31;5056493;28;46278;-56
2022/01/10 00:35:31;;;;;;;;;14.75;14.25;;;;;19.96;35.65;100559.94;5056449;28;45216;-57
2022/01/10 00:37:56;;;;;;;;;15.75;13.25;;;;;19.95;35.83;100576.69;5056563;28;45316;-56
2022/01/10 00:40:22;;;;;;;;;14.50;14.50;;;;;19.95;35.42;100571.44;5056836;28;45239;-56
2022/01/10 00:42:54;;;;;;;;;17.25;14.25;;;;;19.93;35.63;100580.25;5056262;28;46156;-56
2022/01/10 00:45:25;;;;;;;;;10.25;8.50;;;;;19.93;35.36;100579.38;5056291;28;45226;-56
2022/01/10 00:47:52;;;;;;;;;16.50;14.75;;;;;19.93;35.53;100595.16;5056459;28;45864;-55
2022/01/10 00:50:17;;;;;;;;;15.25;10.00;;;;;19.91;35.58;100591.78;5056429;28;45414;-56
2022/01/10 00:52:44;;;;;;;;;13.75;13.75;;;;;19.90;35.92;100590.94;5056445;28;45392;-57
2022/01/10 00:55:10;;;;;;;;;12.75;12.00;;;;;19.87;35.65;100588.47;5056653;28;45935;-57
2022/01/10 00:57:35;;;;;;;;;16.75;16.25;;;;;19.87;35.60;100593.72;5056352;28;45375;-56
2022/01/10 01:00:01;;;;;;;;;12.25;12.00;;;;;19.88;36.00;100586.72;5038382;28;45581;-56
2022/01/10 01:02:31;;;;;;;;;16.00;13.75;;;;;19.86;35.52;100583.31;5055957;28;46399;-57
2022/01/10 01:05:01;;;;;;;;;16.25;13.00;;;;;19.84;35.68;100595.66;5055916;28;45433;-57
2022/01/10 01:07:26;;;;;;;;;16.25;13.00;;;;;19.84;35.89;100593.91;5055987;28;45343;-56
2022/01/10 01:10:03;;;;;;;;;16.00;16.00;;;;;19.84;35.97;100600.91;5056165;28;45637;-57
2022/01/10 01:12:47;;;;;;;;;15.75;15.00;;;;;19.83;36.03;100607.09;5039698;28;46438;-57
2022/01/10 01:15:23;;;;;;;;;16.00;14.50;;;;;19.83;35.48;100609.75;5056236;28;45884;-57
2022/01/10 01:20:43;;;;;;;;;17.75;16.75;;;;;19.82;35.64;100629.06;5059802;28;45233;-57
2022/01/10 01:26:01;;;;;;;;;12.75;12.75;;;;;19.79;35.89;100635.38;5059231;28;45445;-57
2022/01/10 01:28:27;;;;;;;;;15.25;15.25;;;;;19.78;35.92;100636.28;5059533;28;45380;-56
2022/01/10 01:30:52;;;;;;;;;14.00;14.00;;;;;19.78;35.76;100642.41;5059571;28;45229;-56
2022/01/10 01:33:18;;;;;;;;;19.50;17.75;;;;;19.77;36.11;100647.75;5059018;28;46925;-55
2022/01/10 01:35:43;;;;;;;;;18.00;15.75;;;;;19.77;36.03;100650.38;5059544;28;45349;-56
2022/01/10 01:38:09;;;;;;;;;16.50;16.50;;;;;19.72;36.12;100650.63;5059423;28;45202;-56
2022/01/10 01:40:40;;;;;;;;;15.00;13.75;;;;;19.76;35.91;100667.94;5041497;28;45523;-56
2022/01/10 01:43:06;;;;;;;;;15.00;14.50;;;;;19.74;35.70;100669.81;5059300;28;45557;-56
2022/01/10 01:45:42;;;;;;;;;15.25;14.00;;;;;19.74;35.77;100680.31;5058958;28;45269;-56
2022/01/10 01:48:07;;;;;;;;;15.50;14.75;;;;;19.75;35.98;100687.28;5058111;28;45198;-55
2022/01/10 01:50:33;;;;;;;;;16.25;15.25;;;;;19.75;35.75;100686.41;5059153;28;45606;-54
2022/01/10 01:52:59;;;;;;;;;17.00;17.00;;;;;19.73;35.83;100689.16;5058895;28;45713;-56
2022/01/10 01:55:25;;;;;;;;;17.50;17.25;;;;;19.71;35.90;100683.13;5058850;28;45424;-55
2022/01/10 01:57:50;;;;;;;;;16.00;15.00;;;;;19.71;35.86;100688.38;5058964;28;45402;-56
2022/01/10 02:00:19;;;;;;;;;15.50;15.50;;;;;19.72;35.92;100687.44;5059515;28;45316;-56
2022/01/10 02:02:46;;;;;;;;;16.75;14.75;;;;;19.71;36.19;100691.00;5059231;28;46094;-56
2022/01/10 02:05:11;;;;;;;;;15.75;15.25;;;;;19.71;35.95;100695.44;5058879;28;45448;-56
2022/01/10 02:07:37;;;;;;;;;17.50;14.25;;;;;19.69;35.95;100698.13;5058953;28;45641;-55
2022/01/10 02:10:04;;;;;;;;;10.25;8.50;;;;;19.70;36.22;100696.34;5059129;28;45305;-56
2022/01/10 02:12:30;;;;;;;;;12.50;12.50;;;;;19.69;36.18;100695.50;5058563;28;47780;-55
2022/01/10 02:14:55;;;;;;;;;18.25;15.00;;;;;19.69;36.22;100705.16;5058661;28;45415;-54
2022/01/10 02:17:23;;;;;;;;;16.25;15.25;;;;;19.67;36.26;100700.00;5058627;28;45507;-55
2022/01/10 02:19:59;;;;;;;;;17.50;16.75;;;;;19.66;36.35;100707.97;5058892;28;45376;-57
2022/01/10 02:22:25;;;;;;;;;18.25;16.25;;;;;19.67;36.09;100710.53;5058446;28;46543;-54
2022/01/10 02:24:50;;;;;;;;;17.00;15.00;;;;;19.67;36.02;100715.78;5058508;28;45183;-56
2022/01/10 02:27:15;;;;;;;;;15.25;15.25;;;;;19.66;35.96;100714.09;5058739;28;45377;-57
2022/01/10 02:29:41;;;;;;;;;18.00;14.75;;;;;19.65;35.88;100707.13;5058622;28;45184;-56
2022/01/10 02:32:07;;;;;;;;;15.75;15.25;;;;;19.65;36.08;100709.75;5058378;28;46704;-54
2022/01/10 02:34:32;;;;;;;;;16.75;16.75;;;;;19.61;36.04;100703.81;5058243;28;45284;-56
2022/01/10 02:36:59;;;;;;;;;17.00;15.75;;;;;19.64;36.05;100705.41;5040422;28;45776;-56
2022/01/10 02:39:25;;;;;;;;;17.25;15.25;;;;;19.63;36.33;100715.06;5058507;28;45459;-57
2022/01/10 02:41:50;;;;;;;;;17.00;17.00;;;;;19.63;35.98;100714.22;5058268;28;45398;-56
2022/01/10 02:44:17;;;;;;;;;15.25;13.75;;;;;19.63;36.20;100714.22;5058480;28;45296;-55
2022/01/10 02:46:44;;;;;;;;;16.25;16.25;;;;;19.61;35.96;100716.97;5058146;28;45312;-56
2022/01/10 02:49:27;;;;;;;;;14.50;12.75;;;;;19.59;36.40;100712.69;5058574;28;45546;-55
2022/01/10 02:51:55;;;;;;;;;13.25;13.25;;;;;19.60;36.13;100720.50;5039981;28;48370;-54
2022/01/10 02:54:25;;;;;;;;;15.00;15.00;;;;;19.60;36.25;100727.53;5058015;28;45765;-54
2022/01/10 02:56:53;;;;;;;;;17.00;15.00;;;;;19.60;36.31;100732.78;5058069;28;45431;-55
2022/01/10 02:59:20;;;;;;;;;19.50;16.00;;;;;19.59;36.32;100739.84;5058469;28;45331;-55
2022/01/10 03:01:46;;;;;;;;;15.00;14.25;;;;;19.59;36.26;100733.72;5040169;28;48257;-55
2022/01/10 03:04:12;;;;;;;;;14.00;12.25;;;;;19.59;35.93;100750.38;5039845;28;45467;-56
2022/01/10 03:06:38;;;;;;;;;14.75;14.75;;;;;19.58;36.36;100753.06;5058070;28;45264;-56
2022/01/10 03:09:06;;;;;;;;;13.50;12.50;;;;;19.57;36.36;100756.59;5057784;28;45197;-55
2022/01/10 03:11:32;;;;;;;;;14.50;13.75;;;;;19.59;36.53;100749.50;5056530;28;46117;-53
2022/01/10 03:13:58;;;;;;;;;16.25;15.75;;;;;19.57;36.49;100761.88;5057719;28;45312;-55
2022/01/10 03:16:24;;;;;;;;;18.00;15.25;;;;;19.58;36.33;100767.06;5057915;28;45414;-56
2022/01/10 03:18:49;;;;;;;;;17.75;16.00;;;;;19.57;35.96;100772.38;5058113;28;45194;-54
2022/01/10 03:21:19;;;;;;;;;16.00;16.00;;;;;19.56;36.49;100763.66;5039410;28;48305;-54
2022/01/10 03:23:45;;;;;;;;;15.75;13.50;;;;;19.56;36.54;100762.81;5056336;28;45907;-55
2022/01/10 03:26:11;;;;;;;;;14.00;14.00;;;;;19.55;36.73;100764.59;5057743;28;45423;-54
2022/01/10 03:28:36;;;;;;;;;12.75;11.00;;;;;19.55;36.71;100777.72;5039774;28;45694;-54
2022/01/10 03:31:02;;;;;;;;;15.00;14.00;;;;;19.55;36.48;100774.28;5057398;28;46537;-54
2022/01/10 03:33:28;;;;;;;;;15.50;13.50;;;;;19.54;36.69;100778.66;5057250;28;45443;-54
2022/01/10 03:35:53;;;;;;;;;15.50;14.50;;;;;19.52;36.45;100771.78;5039449;28;45435;-53
2022/01/10 03:38:18;;;;;;;;;15.00;14.00;;;;;19.53;36.63;100779.59;5057915;28;45323;-57
2022/01/10 03:40:44;;;;;;;;;17.25;14.25;;;;;19.54;36.43;100783.09;5056745;28;46598;-52
2022/01/10 03:43:09;;;;;;;;;18.00;16.50;;;;;19.53;36.22;100794.53;5057385;28;45304;-54
2022/01/10 03:45:35;;;;;;;;;15.00;14.00;;;;;19.53;36.65;100789.25;5039319;28;45280;-56
2022/01/10 03:48:00;;;;;;;;;17.25;14.00;;;;;19.50;36.40;100795.53;5057435;28;45579;-54
2022/01/10 03:50:26;;;;;;;;;14.50;13.75;;;;;19.52;36.21;100798.06;5038796;28;46213;-55
2022/01/10 03:52:51;;;;;;;;;17.00;15.00;;;;;19.50;36.32;100806.06;5057270;28;45190;-55
2022/01/10 03:55:16;;;;;;;;;15.75;14.00;;;;;19.51;36.36;100809.50;5057284;28;45647;-56
2022/01/10 03:57:42;;;;;;;;;14.75;14.75;;;;;19.51;36.54;100809.50;5057354;28;45256;-54
2022/01/10 04:00:09;;;;;;;;;18.00;16.00;;;;;19.51;36.24;100814.78;5056889;28;46484;-54
2022/01/10 04:02:36;;;;;;;;;14.50;14.25;;;;;19.48;36.70;100810.53;5056890;28;45919;-54
2022/01/10 04:05:01;;;;;;;;;15.75;14.25;;;;;19.49;36.57;100822.75;5057007;28;45331;-53
2022/01/10 04:07:26;;;;;;;;;18.00;14.25;;;;;19.47;36.18;100811.47;5057114;28;45337;-55
2022/01/10 04:09:52;;;;;;;;;16.50;16.50;;;;;19.46;36.59;100815.84;5056530;28;48471;-56
2022/01/10 04:12:18;;;;;;;;;14.25;13.25;;;;;19.47;36.29;100830.69;5057117;28;45332;-56
2022/01/10 04:14:43;;;;;;;;;17.00;15.25;;;;;19.47;36.67;100835.94;5056873;28;45454;-56
2022/01/10 04:17:09;;;;;;;;;19.00;15.25;;;;;19.47;36.53;100835.13;5056962;28;45617;-55
2022/01/10 04:19:34;;;;;;;;;17.00;15.00;;;;;19.46;36.41;100842.13;5056473;28;45499;-55
2022/01/10 04:21:59;;;;;;;;;17.25;14.25;;;;;19.46;36.69;100852.66;5038390;28;45375;-55
2022/01/10 04:24:25;;;;;;;;;14.25;13.50;;;;;19.44;36.75;100846.66;5056755;28;45378;-56
2022/01/10 04:26:50;;;;;;;;;16.75;13.50;;;;;19.46;36.64;100839.50;5057000;28;45633;-54
2022/01/10 04:29:15;;;;;;;;;14.75;13.50;;;;;19.49;37.04;100846.41;5056521;28;45929;-55
2022/01/10 04:31:41;;;;;;;;;13.50;13.50;;;;;19.51;36.84;100854.22;5056564;28;45341;-55
2022/01/10 04:34:06;;;;;;;;;12.75;12.75;;;;;19.54;36.70;100854.06;5056415;28;45221;-53
2022/01/10 04:36:32;;;;;;;;;16.75;15.00;;;;;19.61;36.95;100852.81;5056790;28;45586;-55
2022/01/10 04:38:57;;;;;;;;;17.50;15.00;;;;;19.66;36.77;100858.69;5056202;28;46299;-52
2022/01/10 04:41:22;;;;;;;;;15.00;14.00;;;;;19.72;36.61;100857.53;5056751;28;45245;-54
2022/01/10 04:43:48;;;;;;;;;13.50;13.50;;;;;19.76;36.86;100859.91;5038474;28;45334;-56
2022/01/10 04:46:13;;;;;;;;;16.00;14.25;;;;;19.84;36.62;100869.19;5056493;28;45561;-55
2022/01/10 04:48:38;;;;;;;;;13.50;13.50;;;;;19.86;36.83;100872.63;5056086;28;45332;-53
2022/01/10 04:53:32;;;;;;;;;14.00;12.25;;;;;19.97;36.25;100888.69;5055593;28;45378;-55
2022/01/10 04:55:57;;;;;;;;;16.75;13.75;;;;;20.02;36.32;100891.91;5056480;28;45401;-55
2022/01/10 04:58:23;;;;;;;;;15.00;13.25;;;;;20.06;36.91;100897.91;5038346;28;47623;-55
2022/01/10 05:00:51;;;;;;;;;18.25;15.25;;;;;20.10;36.84;100906.47;5056180;28;45378;-56
2022/01/10 05:03:17;;;;;;;;;14.25;11.25;;;;;20.13;36.37;100914.19;5056346;28;45238;-57
2022/01/10 05:05:43;;;;;;;;;14.50;14.00;;;;;20.14;36.67;100903.59;5056316;28;45332;-57
2022/01/10 05:08:09;;;;;;;;;8.00;8.00;;;;;20.17;36.21;100908.72;5055987;28;46520;-56
2022/01/10 05:10:35;;;;;;;;;18.50;16.00;;;;;20.19;36.10;100912.09;5056124;28;45966;-57
2022/01/10 05:13:00;;;;;;;;;16.00;12.50;;;;;20.21;36.64;100914.66;5056308;28;45917;-56
2022/01/10 05:15:26;;;;;;;;;14.00;13.50;;;;;20.22;36.12;100921.63;5056434;28;45540;-58
2022/01/10 05:17:51;;;;;;;;;15.75;15.00;;;;;20.22;35.98;100927.72;5056291;28;45407;-59
2022/01/10 05:20:16;;;;;;;;;14.75;11.75;;;;;20.25;36.14;100918.81;5055941;28;45449;-58
2022/01/10 05:22:42;;;;;;;;;14.00;12.25;;;;;20.27;36.47;100926.63;5056084;28;45462;-57
2022/01/10 05:25:07;;;;;;;;;15.25;14.75;;;;;20.27;36.51;100939.81;5056073;28;45645;-56
2022/01/10 05:27:33;;;;;;;;;16.25;15.00;;;;;20.27;36.16;100938.00;5055803;28;45463;-56
2022/01/10 05:29:58;;;;;;;;;11.25;10.50;;;;;20.27;35.91;100935.38;5055922;28;45324;-57
2022/01/10 05:32:23;;;;;;;;;15.50;13.75;;;;;20.27;36.42;100940.63;5056222;28;45379;-56
2022/01/10 05:34:49;;;;;;;;;16.00;15.00;;;;;20.28;36.09;100944.97;5055933;28;45402;-56
2022/01/10 05:37:14;;;;;;;;;15.00;14.75;;;;;20.28;36.04;100947.59;5055632;28;46271;-56
2022/01/10 05:39:39;;;;;;;;;14.25;12.50;;;;;20.28;36.14;100952.88;5055712;28;45367;-55
2022/01/10 05:42:05;;;;;;;;;14.75;14.75;;;;;20.27;36.27;100961.69;5055792;28;45411;-55
2022/01/10 05:44:30;;;;;;;;;12.50;12.00;;;;;20.27;36.02;100961.69;5055894;28;45482;-55
2022/01/10 05:46:58;;;;;;;;;15.50;13.75;;;;;20.28;36.28;100965.19;5037665;28;47949;-54
2022/01/10 05:49:29;;;;;;;;;15.75;11.25;;;;;20.28;35.89;100968.66;5055917;28;45262;-55
2022/01/10 05:51:54;;;;;;;;;16.00;15.00;;;;;20.27;36.24;100976.66;5056076;28;45288;-56
2022/01/10 05:54:19;;;;;;;;;15.25;15.00;;;;;20.26;36.08;100981.03;5055833;28;45344;-56
2022/01/10 05:56:45;;;;;;;;;15.75;15.75;;;;;20.27;36.33;100984.53;5037432;28;46361;-55
2022/01/10 05:59:10;;;;;;;;;13.25;13.25;;;;;20.25;35.85;100989.88;5055558;28;45229;-54
2022/01/10 06:01:36;;;;;;;;;19.00;16.75;;;;;20.26;35.89;100994.19;5055603;28;45328;-55
2022/01/10 06:04:01;;;;;;;;;15.00;12.50;;;;;20.22;35.67;100997.94;5057518;28;45277;-56
2022/01/10 06:06:26;;;;;;;;;18.50;17.25;;;;;20.24;36.21;101010.09;5058859;28;46272;-57
2022/01/10 06:08:52;;;;;;;;;15.00;13.00;;;;;20.22;36.05;101009.31;5058607;28;45234;-56
2022/01/10 06:11:17;;;;;;;;;18.00;16.50;;;;;20.21;36.19;101012.88;5058893;28;45423;-56
2022/01/10 06:13:42;;;;;;;;;16.75;16.25;;;;;20.21;35.91;101019.94;5058940;28;45517;-55
2022/01/10 06:16:08;;;;;;;;;15.25;13.25;;;;;20.22;35.73;101040.06;5058585;28;46384;-56
2022/01/10 06:18:33;;;;;;;;;10.25;9.75;;;;;20.20;36.11;101049.81;5058572;28;45264;-56
2022/01/10 06:20:59;;;;;;;;;13.25;13.25;;;;;20.20;35.99;101052.44;5058990;28;45502;-56
2022/01/10 06:23:25;;;;;;;;;17.00;16.25;;;;;20.15;36.00;101051.81;5057886;28;45662;-56
2022/01/10 06:25:51;;;;;;;;;16.75;16.75;;;;;20.17;35.94;101063.09;5058338;28;46140;-56
2022/01/10 06:28:18;;;;;;;;;20.25;17.25;;;;;20.13;36.02;101072.94;5058383;28;45361;-56
2022/01/10 06:30:44;;;;;;;;;6.00;5.00;;;;;20.14;36.02;101065.88;5058557;28;45316;-57
2022/01/10 06:33:09;;;;;;;;;14.50;13.75;;;;;20.13;36.14;101072.06;5058522;28;45427;-56
2022/01/10 06:35:34;;;;;;;;;15.00;15.00;;;;;20.11;36.29;101071.31;5040139;28;46015;-57
2022/01/10 06:38:00;;;;;;;;;15.75;13.50;;;;;20.08;36.08;101078.44;5058236;28;45316;-56
2022/01/10 06:40:25;;;;;;;;;14.75;13.50;;;;;20.10;35.91;101077.50;5058664;28;45170;-56
2022/01/10 06:42:50;;;;;;;;;15.25;15.25;;;;;20.07;36.15;101082.00;5058517;28;45198;-57
2022/01/10 06:45:16;;;;;;;;;17.50;15.50;;;;;20.06;35.82;101082.91;5057203;28;45716;-56
2022/01/10 06:47:41;;;;;;;;;13.50;13.50;;;;;20.05;35.73;101099.63;5040149;28;45363;-55
2022/01/10 06:50:08;;;;;;;;;16.50;14.75;;;;;20.04;36.20;101108.44;5058283;28;45261;-56
2022/01/10 06:52:34;;;;;;;;;16.00;15.00;;;;;20.03;35.86;101103.25;5040238;28;45383;-56
2022/01/10 06:55:00;;;;;;;;;17.75;15.25;;;;;20.02;35.98;101112.09;5058353;28;46253;-55
2022/01/10 06:57:25;;;;;;;;;13.50;13.50;;;;;20.00;36.28;101125.31;5058185;28;45487;-55
2022/01/10 06:59:51;;;;;;;;;19.00;18.00;;;;;19.99;36.51;101131.50;5039908;28;45494;-55
2022/01/10 07:02:17;;;;;;;;;14.75;13.75;;;;;19.98;35.97;101142.09;5058080;28;45646;-53
2022/01/10 07:04:43;;;;;;;;;19.00;17.00;;;;;19.97;36.34;101149.13;5057940;28;45640;-54
2022/01/10 07:07:09;;;;;;;;;17.25;16.25;;;;;19.95;36.52;101153.63;5057713;28;45408;-55
2022/01/10 07:09:35;;;;;;;;;16.75;13.00;;;;;19.92;36.13;101164.28;5057739;28;45464;-56
2022/01/10 07:12:00;;;;;;;;;15.00;14.50;;;;;19.92;36.11;101166.91;5058365;28;45601;-54
2022/01/10 07:14:28;;;;;;;;;20.25;17.00;;;;;19.88;36.27;101174.09;5057268;28;46556;-55
2022/01/10 07:16:53;;;;;;;;;18.75;16.75;;;;;19.88;36.34;101181.16;5057199;28;45883;-56
2022/01/10 07:19:19;;;;;;;;;16.00;16.00;;;;;19.87;36.02;101195.22;5039658;28;45984;-56
2022/01/10 07:21:45;;;;;;;;;20.00;15.00;;;;;19.86;36.27;101201.41;5057869;28;45178;-56
2022/01/10 07:24:10;;;;;;;;;22.50;19.50;;;;;19.84;36.31;101198.81;5056118;28;46314;-56
2022/01/10 07:26:36;;;;;;;;;15.00;15.00;;;;;19.81;36.16;101201.59;5057512;28;45534;-55
2022/01/10 07:29:03;;;;;;;;;15.25;14.75;;;;;19.82;36.55;101219.09;5057879;28;45473;-56
2022/01/10 07:31:29;;;;;;;;;18.25;16.75;;;;;19.81;36.28;101227.03;5057997;28;45614;-55
2022/01/10 07:33:56;;;;;;;;;14.25;14.00;;;;;19.80;36.04;101231.44;5039279;28;48484;-61
2022/01/10 07:36:22;;;;;;;;;19.00;14.00;;;;;19.77;36.44;101236.84;5057362;28;45889;-56
2022/01/10 07:38:47;;;;;;;;;31.00;30.00;;;;;19.39;34.52;101242.91;5057602;28;45349;-52
2022/01/10 07:41:12;;;;;;;;;34.25;27.50;;;;;18.54;34.59;101255.16;5057536;28;45416;-55
2022/01/10 07:43:38;;;;;;;;;30.50;29.25;;;;;17.75;35.50;101265.16;5057787;28;45423;-53
2022/01/10 07:46:04;;;;;;;;;37.00;27.00;;;;;17.11;36.31;101274.38;5057079;28;45384;-55
2022/01/10 07:48:32;;;;;;;;;33.75;30.75;;;;;16.53;36.86;101267.47;5057678;28;45491;-55
2022/01/10 07:50:57;;;;;;;;;36.00;29.50;;;;;16.12;37.41;101277.44;5039389;28;45640;-55
2022/01/10 07:53:23;;;;;;;;;36.25;29.75;;;;;15.92;38.25;101290.19;5056966;28;46135;-51
2022/01/10 07:55:48;;;;;;;;;36.00;28.00;;;;;15.64;38.44;101289.22;5057028;28;45438;-51
2022/01/10 07:58:14;;;;;;;;;33.75;29.75;;;;;15.34;38.77;101305.66;5038927;28;45301;-55
2022/01/10 08:00:40;;;;;;;;;33.00;25.75;;;;;15.03;39.47;101306.44;5057192;28;45241;-52
2022/01/10 08:03:05;;;;;;;;;37.75;32.25;;;;;14.76;39.62;101321.00;5056824;28;46344;-51
2022/01/10 08:05:30;;;;;;;;;30.50;25.75;;;;;14.57;40.25;101317.91;5057162;28;45332;-51
2022/01/10 08:07:56;;;;;;;;;30.25;28.25;;;;;14.37;40.47;101321.84;5056917;28;45365;-55
2022/01/10 08:10:21;;;;;;;;;28.25;22.75;;;;;14.26;40.31;101332.47;5057148;28;45618;-57
2022/01/10 08:12:47;;;;;;;;;26.75;24.50;;;;;14.09;40.79;101343.25;5056822;28;47629;-56
2022/01/10 08:15:12;;;;;;;;;35.50;30.50;;;;;13.95;40.72;101334.81;5056700;28;45224;-55
2022/01/10 08:17:40;;;;;;;;;27.00;24.50;;;;;13.79;41.14;101342.09;5056868;28;45221;-56
2022/01/10 08:20:06;;;;;;;;;24.50;22.75;;;;;13.61;41.47;101347.59;5057133;28;45415;-53
2022/01/10 08:22:31;;;;;;;;;28.00;24.50;;;;;13.49;41.51;101337.44;5057043;28;46730;-55
2022/01/10 08:24:57;;;;;;;;;31.00;25.75;;;;;13.34;41.58;101338.47;5056668;28;45375;-56
2022/01/10 08:27:22;;;;;;;;;28.50;25.25;;;;;13.21;41.66;101339.59;5055288;28;45377;-49
2022/01/10 08:29:48;;;;;;;;;28.67;28.00;;;;;13.13;41.70;101345.75;5056917;28;45330;-55
2022/01/10 08:32:16;;;;;;;;;24.00;23.75;;;;;13.07;42.13;101355.41;5056379;28;45491;-55
2022/01/10 08:34:42;;;;;;;;;24.25;21.00;;;;;13.41;42.89;101354.91;5056578;28;45231;-55
2022/01/10 08:37:07;;;;;;;;;20.00;17.25;;;;;13.85;42.54;101366.28;5056343;28;45371;-54
2022/01/10 08:39:33;;;;;;;;;17.00;15.75;;;;;14.31;42.31;101366.28;5057156;28;45581;-57
2022/01/10 08:41:58;;;;;;;;;17.75;15.50;;;;;14.76;41.83;101371.44;5056319;28;45390;-55
2022/01/10 08:44:24;;;;;;;;;16.50;16.00;;;;;15.17;41.10;101373.09;5056263;28;45293;-55
2022/01/10 08:46:49;;;;;;;;;16.50;15.25;;;;;15.55;40.87;101377.38;5056342;28;45234;-57
2022/01/10 08:49:15;;;;;;;;;17.75;15.50;;;;;15.92;40.46;101386.06;5056424;28;45261;-55
2022/01/10 08:51:41;;;;;;;;;17.00;14.50;;;;;16.26;39.95;101382.50;5038111;28;47355;-56
2022/01/10 08:54:07;;;;;;;;;16.50;15.25;;;;;16.57;39.94;101384.25;5056226;28;45424;-52
2022/01/10 08:56:33;;;;;;;;;11.25;11.25;;;;;16.85;39.10;101392.13;5056667;28;45473;-56
2022/01/10 08:58:59;;;;;;;;;14.00;11.00;;;;;17.07;39.26;101404.56;5056632;28;45306;-56
2022/01/10 09:01:24;;;;;;;;;12.50;11.25;;;;;17.31;38.98;101413.41;5037971;28;46329;-56
2022/01/10 09:03:50;;;;;;;;;10.75;10.00;;;;;17.53;38.62;101415.31;5056106;28;45248;-56
2022/01/10 09:06:17;;;;;;;;;12.00;10.25;;;;;17.71;38.77;101421.72;5056056;28;45326;-54
2022/01/10 09:08:44;;;;;;;;;10.00;9.75;;;;;17.89;38.50;101422.84;5056154;28;45229;-56
2022/01/10 09:11:10;;;;;;;;;12.00;9.25;;;;;18.06;38.08;101430.16;5056076;28;47230;-55
2022/01/10 09:13:36;;;;;;;;;13.00;8.25;;;;;18.18;37.98;101434.09;5056348;28;45562;-54
2022/01/10 09:16:02;;;;;;;;;11.00;10.25;;;;;18.36;37.84;101440.44;5056163;28;45363;-55
2022/01/10 09:18:28;;;;;;;;;8.50;8.25;;;;;18.49;37.68;101438.22;5056217;28;45563;-54
2022/01/10 09:20:55;;;;;;;;;11.25;9.75;;;;;18.62;37.76;101440.38;5055761;28;46366;-55
2022/01/10 09:23:22;;;;;;;;;10.25;10.00;;;;;18.72;37.50;101447.00;5056003;28;45190;-54
2022/01/10 09:25:49;;;;;;;;;10.75;10.75;;;;;18.83;37.46;101452.69;5037932;28;45274;-56
2022/01/10 09:28:15;;;;;;;;;12.25;8.50;;;;;18.94;37.50;101456.72;5055930;28;45324;-56
2022/01/10 09:30:40;;;;;;;;;12.50;9.25;;;;;19.02;37.44;101454.63;5055717;28;45677;-55
2022/01/10 09:33:05;;;;;;;;;12.50;10.50;;;;;19.10;37.36;101447.34;5055852;28;45357;-56
2022/01/10 09:35:31;;;;;;;;;10.75;8.50;;;;;19.18;37.43;101460.19;5055878;28;45276;-57
2022/01/10 09:37:56;;;;;;;;;11.75;11.00;;;;;19.27;37.31;101467.69;5038204;28;45442;-58
2022/01/10 09:40:22;;;;;;;;;13.00;10.25;;;;;19.34;37.10;101465.69;5059143;28;45528;-56
2022/01/10 09:42:48;;;;;;;;;11.75;11.25;;;;;19.40;37.14;101472.47;5059208;28;45643;-60
2022/01/10 09:45:14;;;;;;;;;10.75;10.75;;;;;19.46;36.92;101475.66;5059393;28;45340;-56
2022/01/10 09:47:39;;;;;;;;;12.50;11.00;;;;;19.53;37.02;101481.53;5059410;28;45539;-54
2022/01/10 09:50:07;;;;;;;;;13.75;11.50;;;;;19.58;36.83;101490.09;5041297;28;47940;-56
2022/01/10 09:52:34;;;;;;;;;14.50;10.75;;;;;19.64;37.25;101491.63;5059063;28;45270;-56
2022/01/10 09:54:59;;;;;;;;;12.75;11.25;;;;;19.68;36.68;101497.63;5059258;28;45337;-55
2022/01/10 09:57:25;;;;;;;;;11.25;8.50;;;;;19.71;37.36;101500.97;5059280;28;45242;-55
2022/01/10 09:59:50;;;;;;;;;12.25;8.00;;;;;19.76;36.97;101511.28;5059005;28;46363;-55
2022/01/10 10:02:16;;;;;;;;;11.50;11.25;;;;;19.78;36.74;101506.81;5058939;28;45372;-58
2022/01/10 10:04:43;;;;;;;;;10.00;10.00;;;;;19.80;36.90;101515.53;5058998;28;45339;-57
2022/01/10 10:07:09;;;;;;;;;7.50;7.00;;;;;19.83;36.94;101518.03;5059447;28;45304;-53
2022/01/10 10:09:35;;;;;;;;;9.25;9.00;;;;;19.86;37.17;101531.06;5058612;28;45322;-51
2022/01/10 10:12:01;;;;;;;;;11.25;9.75;;;;;19.87;36.82;101531.94;5040677;28;45405;-53
2022/01/10 10:14:29;;;;;;;;;8.50;8.50;;;;;19.92;36.90;101532.59;5040841;28;45304;-51
2022/01/10 10:16:57;;;;;;;;;9.25;9.25;;;;;19.95;37.22;101536.88;5039865;28;45737;-46
2022/01/10 10:19:28;;;;;;;;;9.00;8.00;;;;;19.97;37.37;101535.03;5058458;28;47107;-49
2022/01/10 10:21:58;;;;;;;;;7.25;6.00;;;;;19.97;36.98;101533.25;5058735;28;45353;-53
2022/01/10 10:24:24;;;;;;;;;8.75;8.75;;;;;20.00;37.19;101538.41;5040557;28;45380;-53
2022/01/10 10:26:51;;;;;;;;;8.00;8.00;;;;;20.00;37.11;101540.16;5058708;28;45583;-52
2022/01/10 10:29:17;;;;;;;;;9.50;9.50;;;;;20.02;37.19;101540.97;5058435;28;46155;-56
2022/01/10 10:31:50;;;;;;;;;10.75;9.00;;;;;20.04;37.06;101544.38;5040420;28;45718;-55
2022/01/10 10:34:19;;;;;;;;;9.25;9.25;;;;;20.03;37.13;101543.53;5040523;28;45364;-60
2022/01/10 10:36:45;;;;;;;;;8.25;8.00;;;;;20.03;36.83;101545.31;5040609;28;45562;-55
2022/01/10 10:39:11;;;;;;;;;10.00;9.00;;;;;20.02;37.02;101554.97;5058269;28;45441;-55
2022/01/10 10:41:38;;;;;;;;;12.25;9.75;;;;;20.02;36.80;101552.31;5058306;28;45519;-58
2022/01/10 10:44:05;;;;;;;;;9.75;7.00;;;;;20.02;37.39;101557.59;5058244;28;45323;-58
2022/01/10 10:46:30;;;;;;;;;11.25;9.00;;;;;20.00;37.06;101553.31;5058426;28;45609;-60
2022/01/10 10:49:07;;;;;;;;;14.00;9.75;;;;;20.00;37.43;101564.72;5057723;28;46239;-51
2022/01/10 10:51:35;;;;;;;;;6.75;6.75;;;;;20.00;37.09;101563.84;5057378;28;45312;-57
2022/01/10 10:54:06;;;;;;;;;10.50;8.75;;;;;19.99;37.46;101568.28;5058151;28;45408;-57
2022/01/10 10:56:39;;;;;;;;;10.00;8.25;;;;;20.01;36.76;101565.56;5058579;28;45573;-57
2022/01/10 10:59:07;;;;;;;;;11.25;7.75;;;;;19.98;37.08;101569.19;5058096;28;46137;-59
2022/01/10 11:01:36;;;;;;;;;7.25;6.50;;;;;20.00;37.44;101575.25;5040023;28;45831;-62
2022/01/10 11:04:03;;;;;;;;;9.00;8.00;;;;;20.02;37.52;101577.81;5058064;28;45334;-57
2022/01/10 11:06:33;;;;;;;;;8.75;7.75;;;;;20.01;37.59;101571.66;5058198;28;45356;-59
2022/01/10 11:09:09;;;;;;;;;10.00;8.25;;;;;20.02;37.46;101589.16;5057676;28;46690;-53
2022/01/10 11:11:35;;;;;;;;;11.25;9.00;;;;;20.00;37.32;101585.78;5057794;28;45221;-58
2022/01/10 11:14:03;;;;;;;;;11.25;8.00;;;;;19.99;37.82;101586.69;5057811;28;45332;-60
2022/01/10 11:16:29;;;;;;;;;8.75;8.25;;;;;19.96;37.99;101568.38;5039924;28;45297;-58